Time;durP1;ratioP1;P1;durP2;ratioP2;P2;SDS_P1;SDS_P2;PMS_P1;PMS_P2;Temp;Humidity;BMP_temperature;BMP_pressure;BME280_temperature;BME280_humidity;BME280_pressure;Samples;Min_cycle;Max_cycle;Signal;HPM_P1;HPM_P2
2021/12/27 00:01:13;;;;;;;13.07;10.70;;;12.20;96.70;;;;;;5113566;27;20043;-78
2021/12/27 00:03:41;;;;;;;12.40;11.10;;;12.20;96.70;;;;;;5115193;27;20126;-78
2021/12/27 00:06:10;;;;;;;12.80;11.23;;;12.20;96.70;;;;;;5112625;27;20058;-78
2021/12/27 00:08:40;;;;;;;11.95;10.65;;;12.20;96.70;;;;;;5103174;27;20035;-76
2021/12/27 00:11:11;;;;;;;12.82;10.82;;;12.20;96.70;;;;;;5120897;27;20120;-76
2021/12/27 00:13:39;;;;;;;11.02;9.38;;;12.10;96.70;;;;;;5118797;27;20100;-77
2021/12/27 00:16:09;;;;;;;10.75;9.63;;;12.10;96.70;;;;;;5116785;27;20062;-74
2021/12/27 00:18:37;;;;;;;11.48;8.73;;;12.00;96.70;;;;;;5109917;27;20442;-74
2021/12/27 00:21:05;;;;;;;13.75;10.80;;;12.00;96.70;;;;;;5117985;27;20131;-76
2021/12/27 00:23:34;;;;;;;11.43;9.88;;;12.00;96.70;;;;;;5117995;27;20063;-77
2021/12/27 00:26:03;;;;;;;13.02;9.90;;;12.10;96.70;;;;;;5117915;27;20109;-76
2021/12/27 00:28:33;;;;;;;11.32;10.00;;;12.10;96.70;;;;;;5114065;27;20039;-76
2021/12/27 00:31:03;;;;;;;13.50;11.23;;;12.10;96.70;;;;;;5120430;27;20054;-77
2021/12/27 00:33:31;;;;;;;13.20;10.23;;;12.10;96.70;;;;;;5094880;27;20172;-76
2021/12/27 00:36:01;;;;;;;11.07;9.93;;;12.20;96.70;;;;;;5117066;27;20755;-76
2021/12/27 00:38:32;;;;;;;11.27;10.13;;;12.20;96.70;;;;;;5119159;27;20039;-76
2021/12/27 00:41:01;;;;;;;13.02;10.82;;;12.20;96.70;;;;;;5115061;27;20417;-77
2021/12/27 00:43:29;;;;;;;11.63;10.43;;;12.20;96.70;;;;;;5119816;27;20067;-76
2021/12/27 00:45:59;;;;;;;12.55;11.05;;;12.20;96.70;;;;;;5113512;27;20511;-76
2021/12/27 00:48:27;;;;;;;13.15;11.85;;;12.20;96.70;;;;;;5099640;27;20050;-76
2021/12/27 00:50:55;;;;;;;11.95;10.63;;;12.20;96.70;;;;;;5116325;27;20104;-77
2021/12/27 00:53:24;;;;;;;11.48;10.27;;;12.20;96.70;;;;;;5116225;27;20040;-77
2021/12/27 00:55:52;;;;;;;13.25;10.38;;;12.20;96.70;;;;;;5116011;27;20497;-77
2021/12/27 00:58:20;;;;;;;10.73;9.60;;;12.20;96.70;;;;;;5115610;27;20035;-76
2021/12/27 01:00:50;;;;;;;12.68;11.32;;;12.20;96.70;;;;;;5117936;27;20040;-76
2021/12/27 01:03:21;;;;;;;12.85;11.10;;;12.20;96.70;;;;;;5110631;27;20044;-75
2021/12/27 01:05:50;;;;;;;12.23;10.93;;;12.20;96.70;;;;;;5110922;27;20512;-76
2021/12/27 01:08:18;;;;;;;13.38;11.45;;;12.20;96.70;;;;;;5116636;27;20031;-76
2021/12/27 01:11:01;;;;;;;12.65;11.35;;;12.20;96.70;;;;;;5112774;27;20437;-76
2021/12/27 01:13:42;;;;;;;13.57;11.88;;;12.20;96.70;;;;;;5129546;27;20453;-76
2021/12/27 01:16:12;;;;;;;15.27;12.85;;;12.20;96.70;;;;;;5112811;27;20412;-76
2021/12/27 01:18:45;;;;;;;14.60;13.00;;;12.20;96.70;;;;;;5109889;27;20085;-76
2021/12/27 01:21:15;;;;;;;14.82;13.27;;;12.20;96.70;;;;;;5096765;27;20071;-76
2021/12/27 01:23:43;;;;;;;14.85;13.07;;;12.20;96.70;;;;;;5112070;27;20652;-76
2021/12/27 01:26:12;;;;;;;15.15;13.55;;;12.20;96.70;;;;;;5096701;27;20039;-77
2021/12/27 01:28:41;;;;;;;15.25;13.65;;;12.20;96.70;;;;;;5098558;27;20035;-76
2021/12/27 01:31:10;;;;;;;15.45;13.80;;;12.20;96.70;;;;;;5094133;27;20743;-77
2021/12/27 01:33:40;;;;;;;16.08;14.40;;;12.20;96.70;;;;;;5094151;27;20056;-76
2021/12/27 01:36:10;;;;;;;14.90;13.45;;;12.20;96.70;;;;;;5111239;27;20390;-77
2021/12/27 01:38:40;;;;;;;13.85;12.35;;;12.20;96.70;;;;;;5112927;27;20447;-77
2021/12/27 01:41:10;;;;;;;16.30;13.98;;;12.20;96.70;;;;;;5106466;27;20093;-77
2021/12/27 01:43:40;;;;;;;15.70;14.07;;;12.20;96.70;;;;;;5098027;27;20043;-76
2021/12/27 01:46:10;;;;;;;15.18;13.57;;;12.30;96.70;;;;;;5113494;27;20335;-77
2021/12/27 01:48:41;;;;;;;15.43;13.82;;;12.30;96.70;;;;;;5113320;27;20093;-77
2021/12/27 01:51:14;;;;;;;15.80;14.18;;;12.30;96.70;;;;;;5113214;27;20407;-77
2021/12/27 01:53:44;;;;;;;15.45;13.88;;;12.30;96.70;;;;;;5114453;27;20065;-76
2021/12/27 01:56:14;;;;;;;16.70;14.93;;;12.30;96.70;;;;;;5107827;27;20489;-76
2021/12/27 01:58:44;;;;;;;14.85;13.38;;;12.30;96.70;;;;;;5111432;27;20044;-77
2021/12/27 02:01:15;;;;;;;15.40;13.80;;;12.30;96.70;;;;;;5109047;27;20142;-76
2021/12/27 02:03:45;;;;;;;15.40;13.80;;;12.30;96.70;;;;;;5114453;27;20046;-77
2021/12/27 02:06:14;;;;;;;16.67;14.70;;;12.30;96.70;;;;;;5113070;27;20051;-76
2021/12/27 02:08:44;;;;;;;14.98;13.50;;;12.30;96.70;;;;;;5111196;27;20077;-77
2021/12/27 02:11:14;;;;;;;16.27;14.50;;;12.30;96.70;;;;;;5107914;27;20121;-77
2021/12/27 02:13:44;;;;;;;15.68;14.00;;;12.30;96.70;;;;;;5092978;27;20043;-76
2021/12/27 02:16:15;;;;;;;15.07;13.57;;;12.30;96.70;;;;;;5113798;27;20122;-77
2021/12/27 02:18:44;;;;;;;15.65;12.77;;;12.20;96.70;;;;;;5111889;27;20050;-77
2021/12/27 02:21:14;;;;;;;14.20;12.73;;;12.20;96.70;;;;;;5098103;27;20046;-74
2021/12/27 02:23:43;;;;;;;13.60;12.20;;;12.20;96.70;;;;;;5110035;27;20032;-75
2021/12/27 02:26:11;;;;;;;13.65;11.95;;;12.20;96.70;;;;;;5114872;27;20050;-75
2021/12/27 02:28:39;;;;;;;12.52;11.23;;;12.20;96.70;;;;;;5113881;27;20040;-75
2021/12/27 02:31:08;;;;;;;13.27;11.85;;;12.30;96.70;;;;;;5108349;27;20126;-75
2021/12/27 02:33:37;;;;;;;13.05;11.10;;;12.30;96.70;;;;;;5130351;27;20043;-75
2021/12/27 02:36:07;;;;;;;12.98;11.57;;;12.20;96.70;;;;;;5114141;27;20035;-75
2021/12/27 02:38:39;;;;;;;12.70;11.38;;;12.20;96.70;;;;;;5110382;27;20488;-75
2021/12/27 02:41:09;;;;;;;13.07;10.30;;;12.20;96.70;;;;;;5110608;27;20040;-75
2021/12/27 02:43:39;;;;;;;12.10;10.85;;;12.20;96.70;;;;;;5099944;27;20138;-75
2021/12/27 02:46:09;;;;;;;13.05;11.40;;;12.20;96.70;;;;;;5108622;27;20500;-75
2021/12/27 02:48:39;;;;;;;12.82;10.65;;;12.20;96.70;;;;;;5110575;27;20052;-75
2021/12/27 02:51:08;;;;;;;11.35;10.02;;;12.20;96.70;;;;;;5094443;27;20057;-76
2021/12/27 02:53:38;;;;;;;10.95;9.77;;;12.30;96.70;;;;;;5111047;27;20410;-75
2021/12/27 02:56:07;;;;;;;11.00;9.27;;;12.20;96.70;;;;;;5091286;27;20039;-75
2021/12/27 02:58:36;;;;;;;10.80;9.02;;;12.20;96.70;;;;;;5108069;27;20040;-75
2021/12/27 03:01:07;;;;;;;8.68;7.78;;;12.30;96.70;;;;;;5112558;27;20031;-75
2021/12/27 03:03:36;;;;;;;10.63;7.80;;;12.30;96.70;;;;;;5108868;28;20045;-75
2021/12/27 03:06:05;;;;;;;8.80;7.90;;;12.30;96.70;;;;;;5111365;28;20040;-75
2021/12/27 03:08:33;;;;;;;9.85;7.57;;;12.20;96.70;;;;;;5110157;28;20046;-74
2021/12/27 03:11:04;;;;;;;11.07;8.05;;;12.20;96.70;;;;;;5111769;28;20032;-75
2021/12/27 03:13:34;;;;;;;9.02;7.70;;;12.20;96.70;;;;;;5093975;28;20044;-75
2021/12/27 03:16:08;;;;;;;9.32;7.18;;;12.20;96.70;;;;;;5114071;28;20512;-75
2021/12/27 03:18:38;;;;;;;8.13;7.30;;;12.20;96.70;;;;;;5110601;28;20043;-75
2021/12/27 03:21:07;;;;;;;9.20;8.20;;;12.20;96.70;;;;;;5106777;28;20049;-75
2021/12/27 03:23:37;;;;;;;10.25;7.88;;;12.30;96.70;;;;;;5114962;28;20042;-75
2021/12/27 03:26:07;;;;;;;8.77;7.07;;;12.20;96.70;;;;;;5113981;27;20067;-75
2021/12/27 03:28:36;;;;;;;7.82;6.88;;;12.20;96.70;;;;;;5107769;28;20357;-75
2021/12/27 03:31:04;;;;;;;9.65;7.95;;;12.20;96.70;;;;;;5115247;28;20044;-76
2021/12/27 03:33:33;;;;;;;9.15;7.40;;;12.20;96.70;;;;;;5099793;28;20050;-75
2021/12/27 03:36:03;;;;;;;10.48;7.53;;;12.20;96.70;;;;;;5114406;28;20396;-75
2021/12/27 03:38:35;;;;;;;8.32;7.30;;;12.20;96.70;;;;;;5107886;28;20055;-76
2021/12/27 03:41:10;;;;;;;9.48;7.90;;;12.20;96.70;;;;;;5090228;28;20051;-75
2021/12/27 03:43:38;;;;;;;8.57;7.55;;;12.20;96.70;;;;;;5112345;28;20047;-76
2021/12/27 03:46:06;;;;;;;9.68;8.35;;;12.10;96.70;;;;;;5113232;28;20036;-75
2021/12/27 03:48:34;;;;;;;8.98;7.65;;;12.20;96.70;;;;;;5113001;27;20547;-75
2021/12/27 03:51:02;;;;;;;9.13;7.57;;;12.20;96.70;;;;;;5116441;27;20097;-75
2021/12/27 03:53:31;;;;;;;10.07;7.85;;;12.20;96.70;;;;;;5115067;28;20043;-75
2021/12/27 03:55:59;;;;;;;8.32;7.18;;;12.20;96.70;;;;;;5115633;27;20050;-76
2021/12/27 03:58:33;;;;;;;9.65;7.35;;;12.20;96.70;;;;;;5117540;27;20481;-75
2021/12/27 04:01:15;;;;;;;10.13;7.40;;;12.10;96.70;;;;;;5116141;27;20047;-75
2021/12/27 04:03:45;;;;;;;9.20;6.65;;;12.10;96.70;;;;;;5111623;27;20397;-75
2021/12/27 04:06:14;;;;;;;8.13;7.22;;;12.10;96.70;;;;;;5118063;27;20285;-75
2021/12/27 04:08:42;;;;;;;10.18;8.07;;;12.10;96.70;;;;;;5099855;27;20462;-75
2021/12/27 04:11:10;;;;;;;8.85;7.80;;;12.10;96.70;;;;;;5112897;27;20047;-75
2021/12/27 04:13:40;;;;;;;8.90;7.80;;;12.00;96.70;;;;;;5115996;27;20069;-76
2021/12/27 04:16:08;;;;;;;9.27;8.35;;;12.00;96.70;;;;;;5115292;27;20062;-75
2021/12/27 04:18:36;;;;;;;10.73;8.23;;;12.00;96.70;;;;;;5118179;27;20035;-75
2021/12/27 04:21:05;;;;;;;11.25;8.45;;;12.00;96.70;;;;;;5119812;27;20138;-75
2021/12/27 04:23:33;;;;;;;10.05;8.43;;;12.00;96.70;;;;;;5100837;27;20035;-76
2021/12/27 04:26:01;;;;;;;10.57;8.50;;;12.00;96.70;;;;;;5115175;27;20055;-75
2021/12/27 04:28:29;;;;;;;10.75;8.73;;;12.00;96.70;;;;;;5116667;27;20032;-75
2021/12/27 04:30:58;;;;;;;9.93;8.77;;;12.00;96.70;;;;;;5118861;27;20050;-75
2021/12/27 04:33:26;;;;;;;9.95;8.95;;;12.00;96.70;;;;;;5119905;27;20601;-75
2021/12/27 04:35:54;;;;;;;8.70;7.80;;;12.00;96.70;;;;;;5113732;27;20047;-75
2021/12/27 04:38:22;;;;;;;8.90;7.88;;;12.00;96.70;;;;;;5111396;27;20468;-75
2021/12/27 04:40:52;;;;;;;11.02;9.20;;;12.10;96.70;;;;;;5118805;27;20047;-75
2021/12/27 04:43:23;;;;;;;10.27;8.63;;;12.10;96.70;;;;;;5115590;27;20526;-76
2021/12/27 04:45:53;;;;;;;9.60;8.30;;;12.10;96.70;;;;;;5112120;27;20044;-75
2021/12/27 04:48:24;;;;;;;10.40;9.32;;;12.00;96.70;;;;;;5113117;27;20100;-75
2021/12/27 04:50:53;;;;;;;11.60;8.48;;;12.00;96.70;;;;;;5117069;27;20439;-75
2021/12/27 04:53:21;;;;;;;8.93;7.90;;;12.00;96.70;;;;;;5117109;27;20039;-75
2021/12/27 04:55:49;;;;;;;9.68;7.97;;;12.00;96.70;;;;;;5113770;27;20044;-76
2021/12/27 04:58:21;;;;;;;8.65;7.50;;;12.00;96.70;;;;;;5109974;27;20621;-75
2021/12/27 05:00:52;;;;;;;9.55;7.72;;;11.90;96.70;;;;;;5114538;27;20100;-76
2021/12/27 05:03:20;;;;;;;10.27;7.75;;;11.90;96.70;;;;;;5117279;27;20058;-75
2021/12/27 05:05:49;;;;;;;9.07;7.18;;;11.90;96.70;;;;;;5114941;27;20043;-74
2021/12/27 05:08:17;;;;;;;8.18;7.03;;;11.90;96.70;;;;;;5107355;27;20085;-74
2021/12/27 05:10:47;;;;;;;9.75;7.57;;;11.90;96.70;;;;;;5113101;27;20032;-75
2021/12/27 05:13:17;;;;;;;8.57;7.57;;;11.90;96.70;;;;;;5112027;27;20031;-74
2021/12/27 05:15:46;;;;;;;12.25;7.30;;;11.90;96.70;;;;;;5115957;27;20151;-74
2021/12/27 05:18:15;;;;;;;8.27;7.10;;;11.90;96.70;;;;;;5110713;27;20036;-74
2021/12/27 05:20:43;;;;;;;8.68;7.78;;;11.90;96.70;;;;;;5114858;27;20052;-75
2021/12/27 05:23:13;;;;;;;9.70;8.70;;;11.90;96.70;;;;;;5109764;27;20592;-76
2021/12/27 05:25:41;;;;;;;11.85;9.60;;;11.90;96.70;;;;;;5117393;27;20353;-75
2021/12/27 05:28:09;;;;;;;10.80;9.70;;;11.90;96.70;;;;;;5116795;27;20039;-75
2021/12/27 05:30:38;;;;;;;11.27;10.18;;;11.90;96.70;;;;;;5112825;27;20035;-75
2021/12/27 05:33:07;;;;;;;13.50;11.15;;;11.90;96.70;;;;;;5112194;27;20458;-75
2021/12/27 05:35:35;;;;;;;13.50;11.63;;;11.90;96.70;;;;;;5100483;27;20141;-76
2021/12/27 05:38:03;;;;;;;12.48;11.18;;;11.90;96.70;;;;;;5114637;27;20046;-75
2021/12/27 05:40:33;;;;;;;13.38;11.77;;;11.90;96.70;;;;;;5117494;27;20377;-75
2021/12/27 05:43:01;;;;;;;13.52;12.15;;;11.90;96.70;;;;;;5089854;27;20134;-75
2021/12/27 05:45:29;;;;;;;15.05;12.93;;;11.90;96.70;;;;;;5109088;27;20043;-75
2021/12/27 05:47:58;;;;;;;13.02;11.52;;;11.90;96.70;;;;;;5115666;27;20051;-75
2021/12/27 05:50:26;;;;;;;12.85;11.65;;;11.90;96.70;;;;;;5112229;27;20031;-75
2021/12/27 05:52:54;;;;;;;14.43;13.00;;;11.90;96.70;;;;;;5093787;27;20058;-75
2021/12/27 05:55:23;;;;;;;14.13;12.63;;;11.90;96.70;;;;;;5109073;27;20035;-75
2021/12/27 05:57:52;;;;;;;13.73;12.43;;;11.90;96.70;;;;;;5113816;27;20506;-75
2021/12/27 06:00:20;;;;;;;14.48;12.98;;;11.90;96.70;;;;;;5110538;27;20082;-75
2021/12/27 06:02:51;;;;;;;14.82;13.32;;;11.90;96.70;;;;;;5114907;27;20562;-75
2021/12/27 06:05:19;;;;;;;15.73;14.13;;;11.90;96.70;;;;;;5113386;27;20039;-75
2021/12/27 06:07:47;;;;;;;17.50;15.48;;;12.00;96.70;;;;;;5112687;27;20040;-75
2021/12/27 06:10:16;;;;;;;15.05;13.57;;;12.00;96.70;;;;;;5108665;27;20035;-75
2021/12/27 06:12:44;;;;;;;15.23;13.63;;;12.00;96.70;;;;;;5116345;27;20042;-75
2021/12/27 06:15:14;;;;;;;14.27;12.88;;;11.90;96.70;;;;;;5112256;27;20483;-75
2021/12/27 06:17:42;;;;;;;14.00;12.70;;;11.90;96.70;;;;;;5110278;27;20035;-75
2021/12/27 06:20:12;;;;;;;14.90;13.48;;;11.90;96.70;;;;;;5111385;27;20595;-75
2021/12/27 06:22:44;;;;;;;15.27;13.73;;;11.90;96.70;;;;;;5115147;27;20048;-75
2021/12/27 06:25:12;;;;;;;13.98;12.40;;;12.00;96.70;;;;;;5107930;27;20040;-75
2021/12/27 06:27:40;;;;;;;14.98;12.68;;;12.00;96.70;;;;;;5109147;27;20043;-74
2021/12/27 06:30:11;;;;;;;13.82;12.40;;;12.00;96.70;;;;;;5112573;27;20035;-74
2021/12/27 06:32:41;;;;;;;13.25;11.95;;;12.00;96.70;;;;;;5095251;27;20514;-74
2021/12/27 06:35:11;;;;;;;14.27;12.00;;;12.00;96.70;;;;;;5096143;27;20574;-74
2021/12/27 06:37:40;;;;;;;12.05;10.85;;;12.00;96.70;;;;;;5114900;27;20035;-74
2021/12/27 06:40:10;;;;;;;13.75;11.13;;;12.00;96.70;;;;;;5111427;27;20131;-74
2021/12/27 06:42:39;;;;;;;11.88;10.55;;;11.90;96.70;;;;;;5108910;27;20047;-75
2021/12/27 06:45:09;;;;;;;13.35;10.52;;;11.90;96.70;;;;;;5108292;27;20519;-76
2021/12/27 06:47:38;;;;;;;11.63;9.70;;;11.90;96.70;;;;;;5098830;27;20051;-75
2021/12/27 06:50:09;;;;;;;13.02;10.30;;;11.90;96.70;;;;;;5111355;27;20238;-74
2021/12/27 06:52:38;;;;;;;11.23;9.10;;;11.90;96.70;;;;;;5117503;27;20078;-75
2021/12/27 06:55:07;;;;;;;13.07;8.75;;;11.80;96.70;;;;;;5112990;27;20041;-74
2021/12/27 06:57:36;;;;;;;10.98;8.38;;;11.80;96.70;;;;;;5099913;27;20049;-74
2021/12/27 07:00:06;;;;;;;12.13;8.52;;;11.80;96.70;;;;;;5109263;27;20043;-74
2021/12/27 07:02:35;;;;;;;10.50;8.13;;;11.80;96.70;;;;;;5113061;28;20431;-74
2021/12/27 07:05:04;;;;;;;11.80;8.15;;;11.80;96.70;;;;;;5114750;27;20119;-74
2021/12/27 07:07:35;;;;;;;11.88;8.23;;;11.90;96.70;;;;;;5108698;28;20119;-74
2021/12/27 07:10:04;;;;;;;11.35;7.88;;;11.90;96.70;;;;;;5108839;28;20039;-74
2021/12/27 07:12:32;;;;;;;9.50;7.28;;;11.90;96.70;;;;;;5111774;28;20126;-74
2021/12/27 07:15:00;;;;;;;8.43;7.03;;;11.90;96.70;;;;;;5110088;28;20047;-74
2021/12/27 07:17:29;;;;;;;8.63;6.88;;;11.80;96.70;;;;;;5109975;27;20573;-74
2021/12/27 07:19:57;;;;;;;7.80;6.55;;;11.80;96.70;;;;;;5110740;28;20055;-74
2021/12/27 07:22:25;;;;;;;9.63;6.55;;;11.90;96.70;;;;;;5110946;28;20119;-74
2021/12/27 07:24:55;;;;;;;7.45;6.00;;;11.90;96.70;;;;;;5117142;28;20039;-74
2021/12/27 07:27:23;;;;;;;6.88;5.63;;;11.90;96.70;;;;;;5110779;27;20040;-74
2021/12/27 07:29:51;;;;;;;8.15;6.28;;;11.80;96.70;;;;;;5111796;28;20044;-74
2021/12/27 07:32:19;;;;;;;7.07;5.97;;;11.90;96.70;;;;;;5115971;27;20076;-74
2021/12/27 07:34:48;;;;;;;6.75;5.90;;;11.80;96.70;;;;;;5114118;27;20358;-74
2021/12/27 07:37:16;;;;;;;7.10;4.88;;;11.80;96.70;;;;;;5111509;27;20043;-74
2021/12/27 07:39:44;;;;;;;5.82;5.13;;;11.90;96.70;;;;;;5116053;27;20043;-74
2021/12/27 07:42:14;;;;;;;6.45;4.93;;;11.90;96.70;;;;;;5114097;27;20058;-74
2021/12/27 07:44:42;;;;;;;7.38;4.88;;;11.90;96.70;;;;;;5117387;27;20040;-74
2021/12/27 07:47:10;;;;;;;5.07;4.55;;;11.90;96.70;;;;;;5099356;27;20043;-74
2021/12/27 07:49:39;;;;;;;5.45;4.95;;;12.00;96.70;;;;;;5114208;27;20036;-74
2021/12/27 07:52:08;;;;;;;5.07;4.57;;;12.00;96.70;;;;;;5117521;27;20035;-76
2021/12/27 07:54:36;;;;;;;5.13;4.57;;;12.00;96.70;;;;;;5118096;27;20039;-75
2021/12/27 07:57:04;;;;;;;5.78;5.18;;;11.90;96.70;;;;;;5115248;27;20061;-75
2021/12/27 07:59:34;;;;;;;5.40;4.88;;;12.00;96.70;;;;;;5118081;27;20047;-75
2021/12/27 08:02:02;;;;;;;4.43;4.03;;;12.00;96.70;;;;;;5115566;27;20545;-75
2021/12/27 08:04:31;;;;;;;4.75;4.07;;;12.00;96.70;;;;;;5094403;27;20047;-75
2021/12/27 08:07:01;;;;;;;4.60;4.10;;;12.00;96.70;;;;;;5118998;27;20695;-76
2021/12/27 08:09:29;;;;;;;5.85;4.22;;;12.00;96.70;;;;;;5120759;27;20513;-75
2021/12/27 08:11:57;;;;;;;5.10;3.95;;;12.00;96.70;;;;;;5114120;27;20066;-75
2021/12/27 08:14:25;;;;;;;5.68;4.45;;;12.00;96.70;;;;;;5119458;27;20046;-75
2021/12/27 08:16:54;;;;;;;6.60;4.75;;;12.10;96.70;;;;;;5110334;27;20054;-76
2021/12/27 08:19:22;;;;;;;6.00;4.47;;;12.10;96.70;;;;;;5111070;27;20043;-75
2021/12/27 08:21:50;;;;;;;4.70;4.15;;;12.10;96.70;;;;;;5094463;27;20053;-76
2021/12/27 08:24:18;;;;;;;5.43;4.65;;;12.10;96.70;;;;;;5119816;27;20050;-75
2021/12/27 08:26:47;;;;;;;4.70;4.20;;;12.10;96.70;;;;;;5117008;27;20042;-75
2021/12/27 08:29:15;;;;;;;5.60;5.10;;;12.20;96.70;;;;;;5117528;27;20542;-75
2021/12/27 08:31:43;;;;;;;7.05;5.00;;;12.30;96.70;;;;;;5111769;27;20400;-75
2021/12/27 08:34:13;;;;;;;7.40;5.00;;;12.40;96.70;;;;;;5115190;27;20122;-75
2021/12/27 08:36:41;;;;;;;7.28;5.32;;;12.40;96.70;;;;;;5115048;27;20047;-75
2021/12/27 08:39:09;;;;;;;6.40;5.03;;;12.40;96.70;;;;;;5120363;27;20492;-75
2021/12/27 08:41:37;;;;;;;6.95;5.10;;;12.40;96.70;;;;;;5118207;27;20583;-76
2021/12/27 08:44:06;;;;;;;6.78;5.20;;;12.30;96.70;;;;;;5117772;27;20558;-75
2021/12/27 08:46:34;;;;;;;6.28;5.03;;;12.30;96.70;;;;;;5116788;27;20054;-75
2021/12/27 08:49:04;;;;;;;5.40;4.90;;;12.30;96.70;;;;;;5117334;27;20035;-75
2021/12/27 08:51:34;;;;;;;5.75;4.88;;;12.40;96.70;;;;;;5115102;27;20585;-75
2021/12/27 08:54:03;;;;;;;5.63;4.65;;;12.40;96.70;;;;;;5112724;27;20034;-74
2021/12/27 08:56:31;;;;;;;6.68;5.55;;;12.50;96.70;;;;;;5115577;27;20138;-75
2021/12/27 08:59:00;;;;;;;8.55;5.82;;;12.50;96.70;;;;;;5113041;27;20039;-75
2021/12/27 09:01:28;;;;;;;6.50;5.22;;;12.50;96.70;;;;;;5117739;27;20927;-74
2021/12/27 09:03:56;;;;;;;7.57;5.63;;;12.60;96.70;;;;;;5096785;27;20146;-74
2021/12/27 09:06:25;;;;;;;6.43;5.20;;;12.60;96.70;;;;;;5114753;27;20044;-74
2021/12/27 09:08:54;;;;;;;7.90;6.00;;;12.60;96.70;;;;;;5114700;27;20036;-74
2021/12/27 09:11:22;;;;;;;7.95;5.68;;;12.60;96.70;;;;;;5094044;27;20040;-74
2021/12/27 09:13:50;;;;;;;7.15;5.80;;;12.60;96.70;;;;;;5116356;27;20126;-74
2021/12/27 09:16:38;;;;;;;10.52;6.95;;;12.60;96.70;;;;;;5118432;27;20063;-73
2021/12/27 09:19:07;;;;;;;8.32;5.60;;;12.60;96.70;;;;;;5129494;27;20132;-74
2021/12/27 09:21:35;;;;;;;10.07;6.43;;;12.70;96.70;;;;;;5102962;27;20568;-74
2021/12/27 09:24:06;;;;;;;8.27;6.35;;;12.70;96.70;;;;;;5113603;27;20032;-73
2021/12/27 09:26:35;;;;;;;6.60;5.68;;;12.70;96.70;;;;;;5110389;27;20145;-74
2021/12/27 09:29:03;;;;;;;6.82;5.57;;;12.70;96.70;;;;;;5113766;27;20035;-74
2021/12/27 09:31:31;;;;;;;7.70;5.93;;;12.70;96.70;;;;;;5109077;27;20344;-74
2021/12/27 09:34:00;;;;;;;7.53;5.68;;;12.90;96.70;;;;;;5102882;27;20569;-74
2021/12/27 09:36:28;;;;;;;7.22;5.75;;;13.00;96.70;;;;;;5112519;27;20493;-75
2021/12/27 09:38:57;;;;;;;7.30;5.15;;;13.10;96.70;;;;;;5108087;27;20493;-74
2021/12/27 09:41:27;;;;;;;11.93;5.25;;;13.20;96.70;;;;;;5113577;27;20096;-74
2021/12/27 09:43:55;;;;;;;6.90;5.22;;;13.10;96.70;;;;;;5113453;27;20039;-75
2021/12/27 09:46:24;;;;;;;8.50;5.82;;;13.10;96.70;;;;;;5114753;27;20062;-75
2021/12/27 09:48:54;;;;;;;6.57;4.90;;;13.10;96.70;;;;;;5110653;27;20473;-75
2021/12/27 09:51:23;;;;;;;8.10;5.40;;;13.20;96.70;;;;;;5110754;27;20050;-75
2021/12/27 09:53:52;;;;;;;7.07;5.30;;;13.20;96.70;;;;;;5109451;27;20198;-75
2021/12/27 09:56:20;;;;;;;7.13;4.72;;;13.20;96.70;;;;;;5106229;27;20046;-76
2021/12/27 09:58:53;;;;;;;5.50;4.90;;;13.20;96.70;;;;;;5108815;27;20684;-74
2021/12/27 10:01:22;;;;;;;5.82;4.00;;;13.30;96.70;;;;;;5108937;27;20133;-74
2021/12/27 10:03:53;;;;;;;5.47;4.15;;;13.30;96.70;;;;;;5112026;27;20043;-74
2021/12/27 10:06:23;;;;;;;5.18;4.68;;;13.30;96.70;;;;;;5110765;27;20039;-75
2021/12/27 10:08:52;;;;;;;5.22;4.72;;;13.50;96.70;;;;;;5111658;27;20085;-74
2021/12/27 10:11:23;;;;;;;5.35;4.85;;;13.50;96.70;;;;;;5112643;27;20042;-77
2021/12/27 10:14:02;;;;;;;7.55;4.80;;;13.50;96.70;;;;;;5110963;27;20047;-75
2021/12/27 10:16:32;;;;;;;6.72;5.30;;;13.50;96.70;;;;;;5110616;27;20389;-74
2021/12/27 10:19:03;;;;;;;6.63;4.88;;;13.50;96.70;;;;;;5110488;27;20039;-75
2021/12/27 10:21:33;;;;;;;7.05;5.07;;;13.50;96.70;;;;;;5117626;27;20071;-75
2021/12/27 10:24:04;;;;;;;6.70;5.18;;;13.50;96.70;;;;;;5116230;27;20523;-74
2021/12/27 10:26:33;;;;;;;5.35;4.82;;;13.50;96.70;;;;;;5110338;27;20439;-75
2021/12/27 10:29:12;;;;;;;5.25;4.75;;;13.50;96.70;;;;;;5111207;27;20408;-74
2021/12/27 10:31:59;;;;;;;7.05;5.28;;;13.40;96.70;;;;;;5113360;27;20500;-75
2021/12/27 10:34:30;;;;;;;5.53;4.80;;;13.50;96.70;;;;;;5112250;27;20069;-74
2021/12/27 10:37:16;;;;;;;8.90;6.80;;;13.50;96.70;;;;;;5116338;27;20126;-75
2021/12/27 10:39:48;;;;;;;7.93;6.40;;;13.50;96.70;;;;;;5093931;27;20058;-74
2021/12/27 10:42:18;;;;;;;8.50;6.53;;;13.50;96.70;;;;;;5095689;27;20503;-74
2021/12/27 10:44:51;;;;;;;7.00;5.90;;;13.50;96.70;;;;;;5114294;27;20047;-74
2021/12/27 10:47:34;;;;;;;5.95;5.10;;;13.50;96.70;;;;;;5112991;27;20031;-74
2021/12/27 10:50:08;;;;;;;6.55;5.85;;;13.50;96.70;;;;;;5110838;27;20067;-76
2021/12/27 10:52:57;;;;;;;8.63;5.90;;;13.50;96.70;;;;;;5111808;27;20468;-76
2021/12/27 10:55:31;;;;;;;8.73;6.20;;;13.50;96.70;;;;;;5111701;27;20258;-76
2021/12/27 10:58:12;;;;;;;7.47;5.97;;;13.50;96.70;;;;;;5096763;27;20043;-76
2021/12/27 11:00:43;;;;;;;6.82;5.60;;;13.50;96.70;;;;;;5114076;27;20066;-76
2021/12/27 11:03:33;;;;;;;7.68;5.38;;;13.50;96.70;;;;;;5110145;27;20512;-75
2021/12/27 11:06:04;;;;;;;7.35;6.05;;;13.50;96.70;;;;;;5105436;28;20052;-77
2021/12/27 11:08:33;;;;;;;6.75;5.43;;;13.60;96.70;;;;;;5106472;28;20054;-77
2021/12/27 11:11:02;;;;;;;7.13;4.90;;;13.60;96.70;;;;;;5111842;28;20339;-76
2021/12/27 11:13:32;;;;;;;5.18;4.68;;;13.70;96.70;;;;;;5106748;28;20040;-76
2021/12/27 11:16:02;;;;;;;5.45;4.95;;;13.70;96.70;;;;;;5112655;28;20040;-76
2021/12/27 11:18:31;;;;;;;5.57;4.88;;;13.70;96.70;;;;;;5117263;27;20035;-76
2021/12/27 11:21:01;;;;;;;7.18;4.95;;;13.70;96.70;;;;;;5114443;28;20043;-76
2021/12/27 11:23:31;;;;;;;6.22;5.07;;;13.70;96.70;;;;;;5111150;28;20036;-76
2021/12/27 11:26:23;;;;;;;8.25;5.45;;;13.70;96.70;;;;;;5111437;28;20050;-76
2021/12/27 11:28:52;;;;;;;7.82;5.82;;;13.80;96.70;;;;;;5115597;28;20043;-75
2021/12/27 11:31:28;;;;;;;7.28;5.38;;;13.80;96.70;;;;;;5109660;28;20114;-76
2021/12/27 11:33:58;;;;;;;8.15;4.75;;;13.90;96.70;;;;;;5107297;28;20050;-75
2021/12/27 11:36:28;;;;;;;9.85;5.63;;;13.90;96.70;;;;;;5109571;28;20036;-75
2021/12/27 11:38:58;;;;;;;8.52;5.25;;;14.00;96.70;;;;;;5111578;28;20049;-77
2021/12/27 11:41:34;;;;;;;7.97;5.45;;;14.10;96.70;;;;;;5109713;28;20055;-77
2021/12/27 11:44:04;;;;;;;9.05;5.90;;;14.20;96.70;;;;;;5099774;28;20057;-77
2021/12/27 11:46:57;;;;;;;7.07;5.28;;;14.30;96.70;;;;;;5109840;28;20607;-77
2021/12/27 11:49:43;;;;;;;7.00;5.50;;;14.20;96.70;;;;;;5112599;28;20308;-75
2021/12/27 11:52:23;;;;;;;5.90;4.97;;;14.20;96.70;;;;;;5117870;28;20143;-76
2021/12/27 11:54:54;;;;;;;5.72;5.13;;;14.20;96.70;;;;;;5114077;28;20120;-75
2021/12/27 11:57:50;;;;;;;8.63;5.10;;;14.20;96.70;;;;;;5112522;28;20047;-75
2021/12/27 12:00:36;;;;;;;6.38;4.60;;;14.30;96.70;;;;;;5111189;28;20036;-74
2021/12/27 12:03:19;;;;;;;7.70;5.72;;;14.30;96.70;;;;;;5111000;28;20063;-75
2021/12/27 12:05:49;;;;;;;7.57;5.47;;;14.30;96.70;;;;;;5108712;28;20416;-76
2021/12/27 12:08:19;;;;;;;5.70;4.93;;;14.30;96.70;;;;;;5112980;28;20097;-77
2021/12/27 12:10:56;;;;;;;8.02;4.45;;;14.30;96.70;;;;;;5108671;28;20044;-76
2021/12/27 12:13:27;;;;;;;7.60;5.10;;;14.30;96.70;;;;;;5109329;28;20496;-75
2021/12/27 12:15:58;;;;;;;8.60;5.78;;;14.30;96.70;;;;;;5109760;28;20047;-75
2021/12/27 12:18:29;;;;;;;6.78;4.82;;;14.30;96.70;;;;;;5108908;28;20432;-75
2021/12/27 12:20:58;;;;;;;7.28;4.00;;;14.30;96.70;;;;;;5115417;27;20137;-76
2021/12/27 12:23:57;;;;;;;4.78;2.83;;;14.30;96.70;;;;;;5105738;27;20039;-75
2021/12/27 12:26:25;;;;;;;4.00;2.78;;;14.30;96.70;;;;;;5114671;27;20050;-75
2021/12/27 12:29:00;;;;;;;6.05;3.83;;;14.40;96.70;;;;;;5116587;27;20134;-76
2021/12/27 12:31:30;;;;;;;7.75;4.45;;;14.50;96.70;;;;;;5120128;27;20136;-77
2021/12/27 12:34:10;;;;;;;6.45;4.03;;;14.60;96.70;;;;;;5117720;27;20047;-76
2021/12/27 12:36:49;;;;;;;6.60;4.70;;;14.60;96.70;;;;;;5113449;27;20118;-76
2021/12/27 12:39:19;;;;;;;8.27;5.60;;;14.70;96.70;;;;;;5110491;27;20054;-76
2021/12/27 12:41:48;;;;;;;7.25;4.82;;;14.70;96.70;;;;;;5109766;27;20474;-76
2021/12/27 12:44:18;;;;;;;7.13;6.10;;;14.60;96.70;;;;;;5112148;27;20585;-76
2021/12/27 12:46:49;;;;;;;6.78;4.63;;;14.60;96.70;;;;;;5116690;27;20222;-76
2021/12/27 12:49:20;;;;;;;4.95;4.45;;;14.60;96.70;;;;;;5114600;27;20047;-77
2021/12/27 12:51:50;;;;;;;6.90;4.97;;;14.50;96.70;;;;;;5114055;27;20041;-76
2021/12/27 12:54:26;;;;;;;5.00;4.15;;;14.50;96.70;;;;;;5115315;27;20031;-75
2021/12/27 12:56:57;;;;;;;5.07;4.38;;;14.50;96.70;;;;;;5116790;27;20067;-75